createdAt,value
2016-05-28T00:00:36.345Z,64.59
2016-05-28T00:01:36.301Z,64.4
2016-05-28T00:02:36.522Z,64.59
2016-05-28T00:03:36.510Z,64.59
2016-05-28T00:04:36.559Z,64.31
2016-05-28T00:05:36.296Z,64.31
2016-05-28T00:06:36.518Z,63.92
2016-05-28T00:07:36.707Z,64.02
2016-05-28T00:08:36.711Z,64.4
2016-05-28T00:09:36.510Z,64.11
2016-05-28T00:10:36.309Z,64.02
2016-05-28T00:11:36.297Z,64.11
2016-05-28T00:12:36.503Z,64.11
2016-05-28T00:13:36.302Z,64.11
2016-05-28T00:14:36.727Z,64.11
2016-05-28T00:15:36.307Z,64.02
2016-05-28T00:16:36.295Z,64.02
2016-05-28T00:17:36.500Z,64.02
2016-05-28T00:18:36.503Z,64.11
2016-05-28T00:19:36.365Z,64.11
2016-05-28T00:20:36.712Z,63.63
2016-05-28T00:21:36.355Z,63.73
2016-05-28T00:22:36.701Z,63.92
2016-05-28T00:23:36.501Z,64.11
2016-05-28T00:24:36.489Z,63.82
2016-05-28T00:25:36.288Z,63.92
2016-05-28T00:26:36.305Z,63.73
2016-05-28T00:27:36.700Z,63.82
2016-05-28T00:28:36.499Z,64.11
2016-05-28T00:29:36.486Z,64.11
2016-05-28T00:30:36.489Z,64.02
2016-05-28T00:31:36.694Z,64.21
2016-05-28T00:32:36.494Z,64.21
2016-05-28T00:33:36.341Z,64.21
2016-05-28T00:34:36.702Z,64.5
2016-05-28T00:35:36.346Z,64.21
2016-05-28T00:36:36.489Z,64.4
2016-05-28T00:37:36.492Z,64.31
2016-05-28T00:38:36.494Z,64.31
2016-05-28T00:39:36.326Z,64.28
2016-05-28T00:40:36.499Z,64.28
2016-05-28T00:41:36.690Z,64.28
2016-05-28T00:42:36.334Z,64.28
2016-05-28T00:43:36.477Z,64.28
2016-05-28T00:44:36.323Z,64.37
2016-05-28T00:45:36.685Z,64.37
2016-05-28T00:46:36.688Z,64.28
2016-05-28T00:47:36.691Z,64.37
2016-05-28T00:48:36.693Z,64.18
2016-05-28T00:49:36.493Z,64.18
2016-05-28T00:50:36.480Z,64.08
2016-05-28T00:51:36.279Z,64.37
2016-05-28T00:52:36.704Z,64.47
2016-05-28T00:53:36.488Z,64.37
2016-05-28T00:54:36.334Z,64.37
2016-05-28T00:55:36.275Z,64.28
2016-05-28T00:56:36.683Z,64.47
2016-05-28T00:57:36.281Z,64.56
2016-05-28T00:58:36.673Z,64.47
2016-05-28T00:59:36.675Z,64.47
2016-05-28T01:00:36.273Z,64.37
2016-05-28T01:01:36.478Z,64.18
2016-05-28T01:02:36.683Z,64.18
2016-05-28T01:03:36.468Z,63.79
2016-05-28T01:04:36.471Z,63.98
2016-05-28T01:05:36.474Z,64.08
2016-05-28T01:06:36.476Z,63.98
2016-05-28T01:07:36.479Z,64.08
2016-05-28T01:08:36.263Z,64.08
2016-05-28T01:09:36.485Z,64.08
2016-05-28T01:10:36.535Z,64.08
2016-05-28T01:11:36.661Z,63.7
2016-05-28T01:12:36.460Z,64.08
2016-05-28T01:13:36.260Z,64.08
2016-05-28T01:14:36.310Z,63.98
2016-05-28T01:15:36.515Z,63.98
2016-05-28T01:16:36.457Z,64.47
2016-05-28T01:17:36.459Z,63.89
2016-05-28T01:18:36.462Z,63.98
2016-05-28T01:19:36.417Z,64.08
2016-05-28T01:20:36.467Z,63.98
2016-05-28T01:21:36.657Z,63.79
2016-05-28T01:22:36.456Z,64.28
2016-05-28T01:23:36.475Z,63.98
2016-05-28T01:24:36.697Z,64.37
2016-05-28T01:25:36.261Z,64.28
2016-05-28T01:26:36.452Z,64.56
2016-05-28T01:27:36.454Z,64.56
2016-05-28T01:28:36.661Z,64.47
2016-05-28T01:29:36.664Z,64.56
2016-05-28T01:30:36.306Z,64.37
2016-05-28T01:31:36.669Z,64.56
2016-05-28T01:32:36.249Z,64.47
2016-05-28T01:33:36.658Z,64.37
2016-05-28T01:34:36.833Z,64.18
2016-05-28T01:35:36.444Z,64.18
2016-05-28T01:36:36.244Z,64.47
2016-05-28T01:37:36.247Z,64.28
2016-05-28T01:38:36.452Z,64.28
2016-05-28T01:39:36.658Z,64.28
2016-05-28T01:40:36.457Z,64.37
2016-05-28T01:41:36.243Z,64.28
2016-05-28T01:42:36.448Z,64.18
2016-05-28T01:43:36.654Z,64.28
2016-05-28T01:44:36.438Z,64.28
2016-05-28T01:45:36.096Z,64.18
2016-05-28T01:46:36.646Z,64.28
2016-05-28T01:47:36.649Z,64.28
2016-05-28T01:48:36.432Z,64.18
2016-05-28T01:49:36.232Z,64.28
2016-05-28T01:50:36.626Z,64.37
2016-05-28T01:51:36.440Z,64.37
2016-05-28T01:52:36.443Z,64.18
2016-05-28T01:53:36.242Z,64.28
2016-05-28T01:54:36.480Z,64.28
2016-05-28T01:55:36.233Z,64.37
2016-05-28T01:56:36.642Z,64.37
2016-05-28T01:57:36.442Z,64.37
2016-05-28T01:58:36.631Z,64.37
2016-05-28T01:59:36.431Z,64.37
2016-05-28T02:00:36.434Z,64.37
2016-05-28T02:01:36.280Z,63.98
2016-05-28T02:02:36.220Z,64.18
2016-05-28T02:03:36.629Z,64.18
2016-05-28T02:04:36.069Z,64.37
2016-05-28T02:05:36.494Z,63.98
2016-05-28T02:06:36.466Z,63.89
2016-05-28T02:07:36.422Z,63.98
2016-05-28T02:08:36.627Z,63.98
2016-05-28T02:09:36.411Z,64.08
2016-05-28T02:10:36.430Z,63.98
2016-05-28T02:11:36.636Z,63.98
2016-05-28T02:12:36.419Z,64.08
2016-05-28T02:13:36.218Z,63.98
2016-05-28T02:14:36.424Z,63.98
2016-05-28T02:15:36.662Z,63.98
2016-05-28T02:16:36.415Z,64.08
2016-05-28T02:17:36.417Z,63.98
2016-05-28T02:18:36.420Z,63.95
2016-05-28T02:19:36.469Z,63.98
2016-05-28T02:20:36.441Z,64.05
2016-05-28T02:21:36.412Z,64.28
2016-05-28T02:22:36.414Z,63.67
2016-05-28T02:23:36.402Z,64.37
2016-05-28T02:24:36.404Z,64.15
2016-05-28T02:25:36.267Z,64.15
2016-05-28T02:26:36.207Z,64.43
2016-05-28T02:27:36.194Z,64.15
2016-05-28T02:28:36.400Z,64.15
2016-05-28T02:29:36.403Z,64.25
2016-05-28T02:30:36.405Z,64.25
2016-05-28T02:31:36.408Z,64.34
2016-05-28T02:32:36.208Z,64.34
2016-05-28T02:33:36.397Z,63.95
2016-05-28T02:34:36.619Z,64.25
2016-05-28T02:35:36.433Z,64.34
2016-05-28T02:36:36.202Z,64.34
2016-05-28T02:37:36.612Z,64.43
2016-05-28T02:38:36.396Z,64.25
2016-05-28T02:39:36.383Z,64.34
2016-05-28T02:40:36.588Z,64.34
2016-05-28T02:41:36.404Z,64.43
2016-05-28T02:42:36.593Z,64.15
2016-05-28T02:43:36.597Z,64.25
2016-05-28T02:44:36.177Z,64.25
2016-05-28T02:45:36.585Z,64.25
2016-05-28T02:46:36.589Z,64.25
2016-05-28T02:47:36.373Z,64.25
2016-05-28T02:48:36.376Z,64.25
2016-05-28T02:49:37.112Z,64.53
2016-05-28T02:50:36.178Z,64.34
2016-05-28T02:51:36.384Z,64.15
2016-05-28T02:52:36.590Z,64.15
2016-05-28T02:53:36.374Z,63.95
2016-05-28T02:54:36.375Z,63.95
2016-05-28T02:55:36.581Z,63.95
2016-05-28T02:56:36.381Z,63.95
2016-05-28T02:57:36.009Z,63.76
2016-05-28T02:58:36.370Z,63.67
2016-05-28T02:59:36.373Z,63.85
2016-05-28T03:00:36.376Z,63.85
2016-05-28T03:01:36.363Z,63.85
2016-05-28T03:02:36.367Z,63.76
2016-05-28T03:03:36.369Z,63.85
2016-05-28T03:04:36.356Z,63.95
2016-05-28T03:05:36.233Z,63.85
2016-05-28T03:06:36.361Z,63.85
2016-05-28T03:07:36.363Z,63.85
2016-05-28T03:08:36.570Z,63.85
2016-05-28T03:09:36.400Z,63.95
2016-05-28T03:10:36.560Z,63.85
2016-05-28T03:11:36.563Z,63.85
2016-05-28T03:12:36.363Z,63.67
2016-05-28T03:13:36.427Z,63.85
2016-05-28T03:14:36.368Z,63.85
2016-05-28T03:15:36.354Z,63.76
2016-05-28T03:16:36.154Z,63.85
2016-05-28T03:17:36.343Z,63.95
2016-05-28T03:18:36.347Z,63.76
2016-05-28T03:19:36.006Z,64.05
2016-05-28T03:20:36.352Z,64.05
2016-05-28T03:21:36.339Z,63.95
2016-05-28T03:22:36.342Z,64.34
2016-05-28T03:23:36.392Z,64.25
2016-05-28T03:24:36.129Z,64.15
2016-05-28T03:25:36.350Z,64.25
2016-05-28T03:26:36.337Z,64.34
2016-05-28T03:27:36.339Z,64.02
2016-05-28T03:28:36.530Z,64.34
2016-05-28T03:29:36.345Z,64.25
2016-05-28T03:30:36.536Z,64.25
2016-05-28T03:31:36.319Z,64.53
2016-05-28T03:32:36.166Z,64.34
2016-05-28T03:33:36.325Z,64.34
2016-05-28T03:34:36.780Z,64.15
2016-05-28T03:35:37.189Z,64.5
2016-05-28T03:36:36.317Z,64.12
2016-05-28T03:37:36.132Z,64.15
2016-05-28T03:38:36.525Z,64.15
2016-05-28T03:39:36.527Z,64.12
2016-05-28T03:40:36.530Z,64.15
2016-05-28T03:41:36.378Z,63.64
2016-05-28T03:42:36.114Z,63.73
2016-05-28T03:43:36.320Z,64.05
2016-05-28T03:44:36.339Z,64.21
2016-05-28T03:45:36.310Z,64.05
2016-05-28T03:46:36.313Z,63.76
2016-05-28T03:47:36.112Z,63.92
2016-05-28T03:48:36.521Z,63.92
2016-05-28T03:49:36.165Z,64.05
2016-05-28T03:50:36.308Z,63.76
2016-05-28T03:51:36.310Z,63.82
2016-05-28T03:52:36.313Z,63.73
2016-05-28T03:53:36.504Z,63.76
2016-05-28T03:54:36.507Z,63.92
2016-05-28T03:55:36.524Z,64.05
2016-05-28T03:56:36.511Z,63.92
2016-05-28T03:57:36.311Z,63.95
2016-05-28T03:58:36.501Z,63.73
2016-05-28T03:59:36.300Z,63.95
2016-05-28T04:00:36.100Z,63.85
2016-05-28T04:01:36.103Z,63.95
2016-05-28T04:02:36.497Z,63.85
2016-05-28T04:03:36.500Z,63.95
2016-05-28T04:04:36.767Z,63.67
2016-05-28T04:05:36.505Z,63.67
2016-05-28T04:06:36.492Z,63.76
2016-05-28T04:07:36.494Z,63.85
2016-05-28T04:08:36.308Z,63.64
2016-05-28T04:09:36.500Z,63.82
2016-05-28T04:10:36.486Z,63.82
2016-05-28T04:11:36.286Z,63.64
2016-05-28T04:12:36.289Z,63.73
2016-05-28T04:13:36.276Z,63.82
2016-05-28T04:14:36.279Z,63.82
2016-05-28T04:15:36.485Z,63.73
2016-05-28T04:16:36.472Z,63.73
2016-05-28T04:17:36.271Z,63.82
2016-05-28T04:18:36.071Z,63.92
2016-05-28T04:19:36.089Z,63.92
2016-05-28T04:20:36.654Z,64.02
2016-05-28T04:21:36.469Z,64.02
2016-05-28T04:22:36.471Z,63.92
2016-05-28T04:23:35.912Z,63.92
2016-05-28T04:24:36.477Z,64.12
2016-05-28T04:25:36.277Z,63.92
2016-05-28T04:26:36.311Z,64.12
2016-05-28T04:27:36.314Z,64.02
2016-05-28T04:28:36.269Z,64.12
2016-05-28T04:29:36.475Z,64.21
2016-05-28T04:30:36.259Z,63.82
2016-05-28T04:31:36.464Z,63.73
2016-05-28T04:32:36.264Z,63.73
2016-05-28T04:33:36.048Z,63.92
2016-05-28T04:34:36.816Z,64.12
2016-05-28T04:35:36.241Z,63.82
2016-05-28T04:36:36.259Z,63.82
2016-05-28T04:37:36.450Z,64.02
2016-05-28T04:38:36.250Z,63.73
2016-05-28T04:39:36.252Z,63.82
2016-05-28T04:40:36.083Z,63.82
2016-05-28T04:41:36.445Z,63.82
2016-05-28T04:42:36.260Z,63.64
2016-05-28T04:43:35.888Z,63.82
2016-05-28T04:44:36.453Z,63.82
2016-05-28T04:45:36.238Z,63.82
2016-05-28T04:46:36.427Z,63.73
2016-05-28T04:47:36.243Z,63.64
2016-05-28T04:48:36.027Z,63.64
2016-05-28T04:49:36.826Z,63.82
2016-05-28T04:50:36.626Z,63.92
2016-05-28T04:51:36.441Z,63.82
2016-05-28T04:52:36.427Z,63.64
2016-05-28T04:53:36.430Z,63.64
2016-05-28T04:54:36.215Z,63.73
2016-05-28T04:55:36.420Z,63.82
2016-05-28T04:56:36.423Z,63.82
2016-05-28T04:57:36.050Z,63.73
2016-05-28T04:58:36.428Z,63.73
2016-05-28T04:59:36.259Z,63.34
2016-05-28T05:00:36.215Z,63.73
2016-05-28T05:01:36.217Z,63.64
2016-05-28T05:02:36.408Z,63.64
2016-05-28T05:03:36.426Z,63.64
2016-05-28T05:04:36.647Z,63.64
2016-05-28T05:05:36.572Z,63.64
2016-05-28T05:06:36.214Z,63.82
2016-05-28T05:07:36.202Z,63.54
2016-05-28T05:08:36.215Z,63.73
2016-05-28T05:09:36.289Z,63.73
2016-05-28T05:10:36.269Z,63.54
2016-05-28T05:11:36.077Z,63.73
2016-05-28T05:12:36.307Z,63.92
2016-05-28T05:13:36.329Z,63.64
2016-05-28T05:14:36.169Z,63.64
2016-05-28T05:15:36.337Z,63.73
2016-05-28T05:16:36.582Z,63.73
2016-05-28T05:17:36.360Z,63.82
2016-05-28T05:18:36.182Z,63.73
2016-05-28T05:19:37.515Z,63.82
2016-05-28T05:20:36.411Z,63.92
2016-05-28T05:21:36.574Z,63.82
2016-05-28T05:22:36.361Z,63.82
2016-05-28T05:23:36.162Z,63.82
2016-05-28T05:24:36.214Z,63.82
2016-05-28T05:25:36.170Z,63.82
2016-05-28T05:26:36.580Z,63.82
2016-05-28T05:27:36.569Z,64.02
2016-05-28T05:28:36.572Z,63.34
2016-05-28T05:29:36.356Z,63.15
2016-05-28T05:30:36.562Z,63.15
2016-05-28T05:31:36.160Z,63.34
2016-05-28T05:32:36.350Z,63.34
2016-05-28T05:33:36.353Z,63.34
2016-05-28T05:34:36.199Z,63.44
2016-05-28T05:35:37.295Z,63.34
2016-05-28T05:36:36.361Z,63.44
2016-05-28T05:37:36.192Z,63.54
2016-05-28T05:38:36.351Z,63.54
2016-05-28T05:39:36.400Z,63.34
2016-05-28T05:40:36.340Z,63.34
2016-05-28T05:41:36.343Z,62.96
2016-05-28T05:42:36.346Z,62.67
2016-05-28T05:43:36.551Z,62.67
2016-05-28T05:44:36.148Z,62.87
2016-05-28T05:45:36.339Z,62.77
2016-05-28T05:46:36.342Z,62.67
2016-05-28T05:47:36.125Z,62.77
2016-05-28T05:48:36.174Z,62.87
2016-05-28T05:49:36.334Z,62.96
2016-05-28T05:50:37.117Z,62.77
2016-05-28T05:51:36.136Z,62.67
2016-05-28T05:52:36.529Z,62.77
2016-05-28T05:53:36.141Z,62.67
2016-05-28T05:54:36.128Z,62.67
2016-05-28T05:55:36.521Z,62.67
2016-05-28T05:56:36.165Z,62.96
2016-05-28T05:57:36.324Z,62.96
2016-05-28T05:58:36.124Z,62.74
2016-05-28T05:59:36.111Z,63.12
2016-05-28T06:00:36.316Z,63.31
2016-05-28T06:01:36.319Z,63.31
2016-05-28T06:02:36.509Z,62.93
2016-05-28T06:03:36.309Z,62.54
2016-05-28T06:04:36.624Z,62.93
2016-05-28T06:05:36.518Z,62.74
2016-05-28T06:06:36.504Z,63.12
2016-05-28T06:07:36.506Z,63.6
2016-05-28T06:08:36.509Z,63.99
2016-05-28T06:09:36.325Z,63.6
2016-05-28T06:10:36.156Z,63.31
2016-05-28T06:11:36.298Z,63.41
2016-05-28T06:12:36.286Z,63.51
2016-05-28T06:13:36.085Z,63.79
2016-05-28T06:14:36.292Z,63.7
2016-05-28T06:15:36.294Z,64.08
2016-05-28T06:16:36.297Z,64.47
2016-05-28T06:17:36.284Z,64.47
2016-05-28T06:18:36.146Z,64.47
2016-05-28T06:19:37.023Z,64.18
2016-05-28T06:20:36.901Z,64.28
2016-05-28T06:21:36.498Z,64.28
2016-05-28T06:22:36.484Z,64.18
2016-05-28T06:23:36.472Z,64.37
2016-05-28T06:24:36.287Z,64.08
2016-05-28T06:25:36.274Z,64.28
2016-05-28T06:26:36.480Z,63.79
2016-05-28T06:27:36.483Z,64.02
2016-05-28T06:28:36.469Z,64.02
2016-05-28T06:29:36.472Z,63.64
2016-05-28T06:30:36.475Z,63.82
2016-05-28T06:31:36.274Z,63.82
2016-05-28T06:32:36.074Z,63.92
2016-05-28T06:33:36.077Z,64.02
2016-05-28T06:34:36.283Z,63.44
2016-05-28T06:35:36.269Z,63.54
2016-05-28T06:36:36.476Z,63.54
2016-05-28T06:37:36.056Z,63.73
2016-05-28T06:38:36.246Z,63.54
2016-05-28T06:39:36.452Z,63.44
2016-05-28T06:40:36.268Z,63.34
2016-05-28T06:41:36.270Z,63.25
2016-05-28T06:42:36.242Z,63.64
2016-05-28T06:43:36.245Z,63.44
2016-05-28T06:44:36.450Z,63.54
2016-05-28T06:45:36.250Z,63.25
2016-05-28T06:46:36.267Z,63.15
2016-05-28T06:47:36.240Z,63.15
2016-05-28T06:48:36.445Z,63.15
2016-05-28T06:49:37.136Z,63.06
2016-05-28T06:50:36.294Z,63.28
2016-05-28T06:51:36.234Z,63.38
2016-05-28T06:52:36.050Z,63.25
2016-05-28T06:53:36.442Z,63.28
2016-05-28T06:54:36.462Z,63.28
2016-05-28T06:55:36.027Z,62.99
2016-05-28T06:56:36.029Z,62.9
2016-05-28T06:57:36.439Z,62.9
2016-05-28T06:58:36.426Z,62.9
2016-05-28T06:59:36.241Z,62.8
2016-05-28T07:00:36.227Z,62.8
2016-05-28T07:01:36.214Z,62.6
2016-05-28T07:02:35.858Z,62.51
2016-05-28T07:03:36.219Z,62.9
2016-05-28T07:04:35.879Z,62.9
2016-05-28T07:05:36.241Z,62.8
2016-05-28T07:06:36.212Z,62.99
2016-05-28T07:07:36.215Z,62.9
2016-05-28T07:08:36.421Z,62.7
2016-05-28T07:09:36.221Z,62.63
2016-05-28T07:10:36.207Z,62.6
2016-05-28T07:11:36.413Z,62.35
2016-05-28T07:12:36.415Z,62.41
2016-05-28T07:13:36.200Z,62.63
2016-05-28T07:14:36.203Z,62.45
2016-05-28T07:15:36.205Z,62.06
2016-05-28T07:16:36.209Z,62.15
2016-05-28T07:17:36.257Z,61.96
2016-05-28T07:18:35.995Z,62.25
2016-05-28T07:19:36.856Z,62.15
2016-05-28T07:20:36.203Z,62.15
2016-05-28T07:21:36.189Z,62.06
2016-05-28T07:22:36.240Z,61.96
2016-05-28T07:23:35.992Z,62.25
2016-05-28T07:24:35.995Z,62.25
2016-05-28T07:25:36.389Z,62.25
2016-05-28T07:26:36.391Z,61.68
2016-05-28T07:27:36.191Z,61.68
2016-05-28T07:28:36.240Z,61.68
2016-05-28T07:29:35.978Z,61.68
2016-05-28T07:30:36.183Z,61.68
2016-05-28T07:31:36.388Z,61.58
2016-05-28T07:32:36.392Z,61.58
2016-05-28T07:33:36.176Z,61.77
2016-05-28T07:34:36.522Z,61.96
2016-05-28T07:35:36.462Z,61.77
2016-05-28T07:36:36.168Z,61.96
2016-05-28T07:37:36.374Z,61.87
2016-05-28T07:38:35.970Z,61.96
2016-05-28T07:39:36.176Z,61.48
2016-05-28T07:40:36.382Z,61.58
2016-05-28T07:41:36.369Z,61.48
2016-05-28T07:42:36.184Z,61.68
2016-05-28T07:43:36.171Z,61.38
2016-05-28T07:44:36.159Z,61.58
2016-05-28T07:45:36.161Z,61.38
2016-05-28T07:46:35.960Z,62.06
2016-05-28T07:47:36.353Z,61.48
2016-05-28T07:48:36.153Z,61.38
2016-05-28T07:49:36.125Z,61.38
2016-05-28T07:50:36.362Z,61.87
2016-05-28T07:51:36.161Z,61.87
2016-05-28T07:52:35.961Z,61.77
2016-05-28T07:53:36.151Z,62.35
2016-05-28T07:54:36.153Z,61.87
2016-05-28T07:55:36.156Z,61.58
2016-05-28T07:56:35.941Z,61.48
2016-05-28T07:57:36.350Z,61.29
2016-05-28T07:58:36.150Z,61.38
2016-05-28T07:59:36.136Z,61.87
2016-05-28T08:00:36.357Z,61.58
2016-05-28T08:01:35.939Z,61.48
2016-05-28T08:02:36.347Z,61.38
2016-05-28T08:03:36.147Z,61.58
2016-05-28T08:04:36.321Z,62.54
2016-05-28T08:05:36.840Z,61.99
2016-05-28T08:06:36.139Z,62.09
2016-05-28T08:07:36.345Z,61.77
2016-05-28T08:08:36.332Z,61.51
2016-05-28T08:09:36.163Z,61.9
2016-05-28T08:10:36.135Z,61.8
2016-05-28T08:11:36.137Z,61.9
2016-05-28T08:12:36.124Z,61.51
2016-05-28T08:13:36.127Z,61.61
2016-05-28T08:14:36.332Z,61.9
2016-05-28T08:15:35.976Z,61.9
2016-05-28T08:16:36.323Z,62.18
2016-05-28T08:17:36.122Z,61.8
2016-05-28T08:18:35.921Z,62.18
2016-05-28T08:19:36.331Z,61.9
2016-05-28T08:20:36.130Z,61.8
2016-05-28T08:21:36.118Z,61.71
2016-05-28T08:22:36.323Z,61.99
2016-05-28T08:23:35.919Z,61.99
2016-05-28T08:24:36.312Z,61.61
2016-05-28T08:25:36.112Z,61.51
2016-05-28T08:26:36.114Z,61.71
2016-05-28T08:27:35.915Z,61.61
2016-05-28T08:28:37.730Z,61.9
2016-05-28T08:29:36.311Z,61.8
2016-05-28T08:30:36.111Z,61.99
2016-05-28T08:31:36.316Z,61.9
2016-05-28T08:32:36.303Z,61.71
2016-05-28T08:33:36.102Z,61.99
2016-05-28T08:34:36.308Z,62.18
2016-05-28T08:35:35.967Z,62.09
2016-05-28T08:36:36.313Z,61.8
2016-05-28T08:37:36.301Z,61.71
2016-05-28T08:38:35.741Z,61.71
2016-05-28T08:39:36.307Z,62.38
2016-05-28T08:40:36.106Z,62.28
2016-05-28T08:41:35.890Z,62.38
2016-05-28T08:42:36.096Z,62.28
2016-05-28T08:43:36.301Z,61.99
2016-05-28T08:44:36.304Z,62.09
2016-05-28T08:45:36.088Z,62.18
2016-05-28T08:46:36.294Z,62.66
2016-05-28T08:47:36.296Z,62.96
2016-05-28T08:48:36.299Z,62.86
2016-05-28T08:49:36.302Z,62.76
2016-05-28T08:50:36.102Z,62.48
2016-05-28T08:51:36.089Z,62.18
2016-05-28T08:52:36.294Z,62.41
2016-05-28T08:53:36.079Z,62.51
2016-05-28T08:54:35.878Z,62.51
2016-05-28T08:55:36.084Z,62.79
2016-05-28T08:56:36.087Z,62.79
2016-05-28T08:57:35.870Z,62.02
2016-05-28T08:58:36.091Z,62.12
2016-05-28T08:59:36.078Z,62.02
2016-05-28T09:00:36.081Z,62.31
2016-05-28T09:01:36.272Z,62.31
2016-05-28T09:02:36.086Z,62.12
2016-05-28T09:03:36.075Z,62.22
2016-05-28T09:04:36.108Z,61.74
2016-05-28T09:05:36.127Z,61.83
2016-05-28T09:06:36.269Z,61.74
2016-05-28T09:07:36.288Z,61.83
2016-05-28T09:08:35.868Z,61.64
2016-05-28T09:09:36.074Z,61.64
2016-05-28T09:10:36.077Z,61.93
2016-05-28T09:11:36.064Z,62.02
2016-05-28T09:12:35.879Z,62.22
2016-05-28T09:13:36.288Z,63.09
2016-05-28T09:14:35.869Z,62.99
2016-05-28T09:15:35.919Z,62.22
2016-05-28T09:16:36.265Z,62.15
2016-05-28T09:17:36.065Z,62.15
2016-05-28T09:18:36.068Z,62.02
2016-05-28T09:19:36.273Z,61.83
2016-05-28T09:20:36.276Z,61.67
2016-05-28T09:21:36.059Z,61.96
2016-05-28T09:22:36.063Z,62.7
2016-05-28T09:23:36.253Z,62.25
2016-05-28T09:24:36.053Z,63.02
2016-05-28T09:25:35.852Z,62.54
2016-05-28T09:26:36.059Z,62.25
2016-05-28T09:27:35.857Z,62.15
2016-05-28T09:28:35.859Z,62.25
2016-05-28T09:29:35.847Z,62.15
2016-05-28T09:30:36.256Z,62.15
2016-05-28T09:31:36.056Z,61.67
2016-05-28T09:32:36.059Z,62.92
2016-05-28T09:33:36.060Z,62.73
2016-05-28T09:34:36.391Z,63.12
2016-05-28T09:35:35.941Z,62.73
2016-05-28T09:36:36.256Z,63.21
2016-05-28T09:37:36.243Z,63.89
2016-05-28T09:38:36.058Z,63.89
2016-05-28T09:39:36.046Z,64.08
2016-05-28T09:40:36.048Z,63.31
2016-05-28T09:41:36.255Z,63.89
2016-05-28T09:42:36.101Z,63.7
2016-05-28T09:43:36.260Z,63.7
2016-05-28T09:44:36.059Z,63.5
2016-05-28T09:45:35.687Z,64.18
2016-05-28T09:46:36.252Z,64.47
2016-05-28T09:47:35.849Z,63.89
2016-05-28T09:48:35.836Z,63.12
2016-05-28T09:49:36.854Z,63.98
2016-05-28T09:50:35.887Z,64.47
2016-05-28T09:51:36.250Z,63.89
2016-05-28T09:52:36.253Z,63.98
2016-05-28T09:53:36.255Z,64.18
2016-05-28T09:54:36.054Z,63.12
2016-05-28T09:55:36.042Z,63.6
2016-05-28T09:56:36.420Z,63.6
2016-05-28T09:57:35.844Z,63.7
2016-05-28T09:58:36.206Z,63.34
2016-05-28T09:59:36.256Z,63.05
2016-05-28T10:00:35.837Z,63.53
2016-05-28T10:01:36.245Z,64.01
2016-05-28T10:02:36.232Z,63.89
2016-05-28T10:03:36.047Z,63.82
2016-05-28T10:04:36.036Z,64.11
2016-05-28T10:05:36.678Z,63.82
2016-05-28T10:06:36.243Z,63.92
2016-05-28T10:07:35.840Z,63.82
2016-05-28T10:08:36.077Z,63.92
2016-05-28T10:09:36.064Z,63.92
2016-05-28T10:10:36.239Z,63.73
2016-05-28T10:11:35.836Z,63.53
2016-05-28T10:12:36.041Z,63.82
2016-05-28T10:13:36.090Z,63.53
2016-05-28T10:14:36.233Z,63.63
2016-05-28T10:15:36.033Z,64.31
2016-05-28T10:16:35.833Z,63.73
2016-05-28T10:17:36.039Z,62.95
2016-05-28T10:18:36.073Z,63.43
2016-05-28T10:19:35.841Z,63.53
2016-05-28T10:20:36.359Z,63.82
2016-05-28T10:21:35.674Z,63.82
2016-05-28T10:22:36.240Z,63.24
2016-05-28T10:23:36.243Z,63.08
2016-05-28T10:24:36.026Z,63.15
2016-05-28T10:25:36.247Z,63.34
2016-05-28T10:26:36.032Z,63.05
2016-05-28T10:27:36.034Z,63.05
2016-05-28T10:28:36.240Z,62.79
2016-05-28T10:29:36.023Z,62.98
2016-05-28T10:30:36.042Z,63.08
2016-05-28T10:31:36.045Z,62.95
2016-05-28T10:32:36.048Z,62.98
2016-05-28T10:33:36.034Z,62.95
2016-05-28T10:34:37.616Z,63.08
2016-05-28T10:35:36.259Z,62.79
2016-05-28T10:36:35.824Z,63.34
2016-05-28T10:37:36.233Z,63.56
2016-05-28T10:38:36.032Z,63.47
2016-05-28T10:39:36.238Z,62.89
2016-05-28T10:40:35.835Z,63.56
2016-05-28T10:41:35.838Z,62.98
2016-05-28T10:42:35.668Z,63.66
2016-05-28T10:43:35.843Z,63.76
2016-05-28T10:44:36.049Z,64.43
2016-05-28T10:45:36.035Z,63.85
2016-05-28T10:46:36.038Z,63.85
2016-05-28T10:47:36.244Z,63.56
2016-05-28T10:48:36.043Z,63.85
2016-05-28T10:49:36.640Z,64.05
2016-05-28T10:50:36.518Z,64.24
2016-05-28T10:51:35.833Z,64.43
2016-05-28T10:52:36.242Z,64.53
2016-05-28T10:53:36.229Z,64.43
2016-05-28T10:54:36.029Z,64.14
2016-05-28T10:55:36.063Z,64.72
2016-05-28T10:56:36.034Z,63.76
2016-05-28T10:57:36.240Z,63.47
2016-05-28T10:58:36.024Z,63.66
2016-05-28T10:59:36.042Z,63.66
2016-05-28T11:00:38.357Z,64.14
2016-05-28T11:01:36.031Z,63.66
2016-05-28T11:02:36.238Z,63.47
2016-05-28T11:03:36.240Z,64.27
2016-05-28T11:04:36.040Z,63.69
2016-05-28T11:05:37.964Z,63.66
2016-05-28T11:06:36.030Z,63.37
2016-05-28T11:07:36.064Z,63.6
2016-05-28T11:08:36.238Z,64.05
2016-05-28T11:09:35.835Z,63.89
2016-05-28T11:10:35.838Z,63.76
2016-05-28T11:11:36.246Z,63.6
2016-05-28T11:12:36.030Z,63.6
2016-05-28T11:13:36.033Z,63.89
2016-05-28T11:14:36.036Z,63.69
2016-05-28T11:15:36.257Z,63.98
2016-05-28T11:16:35.838Z,64.27
2016-05-28T11:17:36.044Z,63.89
2016-05-28T11:18:36.235Z,63.89
2016-05-28T11:19:36.049Z,63.6
2016-05-28T11:20:36.208Z,63.02
2016-05-28T11:21:36.055Z,63.02
2016-05-28T11:22:36.042Z,62.73
2016-05-28T11:23:35.840Z,63.21
2016-05-28T11:24:36.031Z,63.31
2016-05-28T11:25:36.081Z,63.02
2016-05-28T11:26:36.240Z,63.02
2016-05-28T11:27:37.273Z,63.11
2016-05-28T11:28:35.854Z,63.02
2016-05-28T11:29:36.264Z,63.02
2016-05-28T11:30:36.048Z,62.92
2016-05-28T11:31:36.253Z,63.11
2016-05-28T11:32:37.943Z,62.82
2016-05-28T11:33:36.040Z,63.11
2016-05-28T11:34:36.059Z,63.02
2016-05-28T11:35:36.842Z,63.4
2016-05-28T11:36:36.047Z,63.4
2016-05-28T11:37:37.675Z,63.4
2016-05-28T11:38:36.053Z,63.21
2016-05-28T11:39:36.103Z,63.34
2016-05-28T11:40:35.855Z,63.02
2016-05-28T11:41:36.265Z,63.24
2016-05-28T11:42:36.627Z,63.05
2016-05-28T11:43:36.254Z,63.63
2016-05-28T11:44:36.054Z,63.73
2016-05-28T11:45:36.260Z,63.63
2016-05-28T11:46:35.856Z,63.34
2016-05-28T11:47:36.281Z,63.82
2016-05-28T11:48:36.065Z,64.11
2016-05-28T11:49:36.051Z,63.63
2016-05-28T11:50:36.930Z,64.11
2016-05-28T11:51:36.057Z,64.11
2016-05-28T11:52:36.341Z,63.92
2016-05-28T11:53:36.265Z,64.11
2016-05-28T11:54:36.268Z,63.82
2016-05-28T11:55:36.052Z,64.11
2016-05-28T11:56:36.055Z,63.82
2016-05-28T11:57:36.839Z,64.11
2016-05-28T11:58:36.060Z,64.59
2016-05-28T11:59:35.859Z,63.92
2016-05-28T12:00:35.863Z,64.69
2016-05-28T12:01:36.068Z,64.24
2016-05-28T12:02:37.556Z,64.04
2016-05-28T12:03:36.276Z,64.04
2016-05-28T12:04:36.187Z,64.04
2016-05-28T12:05:36.064Z,63.85
2016-05-28T12:06:36.081Z,63.66
2016-05-28T12:07:38.804Z,63.56
2016-05-28T12:08:36.071Z,62.98
2016-05-28T12:09:36.278Z,62.47
2016-05-28T12:10:36.078Z,62.76
2016-05-28T12:11:36.080Z,62.56
2016-05-28T12:12:38.675Z,62.27
2016-05-28T12:13:36.070Z,62.3
2016-05-28T12:14:36.072Z,62.11
2016-05-28T12:15:36.075Z,63.08
2016-05-28T12:16:36.280Z,63.18
2016-05-28T12:17:37.986Z,64.04
2016-05-28T12:18:36.067Z,63.85
2016-05-28T12:19:36.102Z,63.37
2016-05-28T12:20:35.932Z,63.66
2016-05-28T12:21:36.075Z,63.85
2016-05-28T12:22:38.046Z,63.76
2016-05-28T12:23:36.299Z,63.95
2016-05-28T12:24:36.287Z,64.04
2016-05-28T12:25:36.290Z,64.04
2016-05-28T12:26:36.073Z,64.62
2016-05-28T12:27:38.982Z,64.62
2016-05-28T12:28:36.093Z,64.62
2016-05-28T12:29:35.926Z,64.82
2016-05-28T12:30:36.318Z,65.4
2016-05-28T12:31:35.883Z,65.01
2016-05-28T12:32:36.964Z,65.5
2016-05-28T12:33:36.295Z,65.4
2016-05-28T12:34:36.329Z,65.88
2016-05-28T12:35:35.909Z,65.79
2016-05-28T12:36:36.085Z,64.92
2016-05-28T12:37:37.509Z,64.82
2016-05-28T12:38:36.090Z,64.72
2016-05-28T12:39:36.093Z,63.85
2016-05-28T12:40:36.095Z,63.66
2016-05-28T12:41:36.301Z,64.24
2016-05-28T12:42:36.225Z,63.79
2016-05-28T12:43:35.884Z,63.21
2016-05-28T12:44:36.309Z,63.01
2016-05-28T12:45:36.311Z,63.21
2016-05-28T12:46:36.097Z,63.01
2016-05-28T12:47:42.114Z,63.21
2016-05-28T12:48:36.304Z,63.01
2016-05-28T12:49:36.150Z,63.31
2016-05-28T12:50:36.294Z,63.01
2016-05-28T12:51:36.109Z,63.01
2016-05-28T12:52:37.721Z,63.01
2016-05-28T12:53:35.958Z,62.63
2016-05-28T12:54:36.117Z,62.34